WEATHER DATA

YESTERDAY
Time Temp. Dewp. Hum. Bar. 1h Prec. 24h Prec.
00:02 16.1 13.4 84 1007.5 0.0000 0.0000
00:12 16.1 13.4 84 1007.2 0.0000 0.0000
00:23 16.1 13.4 84 1007.1 0.0000 0.0000
00:33 16.1 13.4 84 1007.1 0.0000 0.0000
00:42 16.1 13.4 84 1007.1 0.0000 0.0000
00:53 16 13.3 84 1007.2 0.0000 0.0000
01:03 15.9 13.2 84 1007.5 0.0000 0.0000
01:13 15.8 13.3 85 1007.5 0.0000 0.0000
01:23 15.7 13.2 85 1007.6 0.0000 0.0000
01:33 15.7 13.2 85 1007.7 0.0000 0.0000
01:43 15.7 13.2 85 1007.8 0.0000 0.0000
01:53 15.7 13.2 85 1007.9 0.0000 0.0000
02:04 15.7 13.2 85 1007.9 0.0000 0.0000
02:14 15.7 13.2 85 1008.2 0.0000 0.0000
02:23 15.6 13.1 85 1008.4 0.0000 0.0000
02:33 15.7 13.4 86 1008.5 0.0000 0.0000
02:44 15.7 13.4 86 1008.5 0.0000 0.0000
02:54 15.7 13.4 86 1008.4 0.0000 0.0000
03:04 15.7 13.4 86 1008.5 0.1010 0.1000
03:14 15.7 13.4 86 1008.4 0.1010 0.1000
03:24 15.8 13.5 86 1008.6 0.1010 0.1000
03:32 15.8 13.5 86 1008.5 0.3030 0.3000
03:43 15.8 13.5 86 1008.6 0.4040 0.4000
03:53 15.8 13.5 86 1008.5 0.4040 0.4000
04:02 15.8 13.5 86 1008.4 0.4040 0.5000
04:13 15.7 13.4 86 1008.1 0.5050 0.6000
04:23 15.7 13.4 86 1008.1 0.6060 0.7000
04:33 15.7 13.4 86 1008.2 0.5050 0.8000
04:43 15.7 13.4 86 1008.2 0.4040 0.8000
04:53 15.7 13.4 86 1008.1 0.3030 0.8000
05:03 15.6 13.3 86 1008 0.3030 0.8000
05:13 15.5 13.2 86 1008.1 0.2020 0.8000
05:23 15.4 13.1 86 1007.8 0.1010 0.8000
05:33 15.3 13 86 1007.9 0.0000 0.8000
05:43 15.2 12.9 86 1008 0.0000 0.8000
05:53 15 12.7 86 1008 0.0000 0.8000
06:04 15 12.7 86 1008.2 0.0000 0.8000
06:14 15.2 12.9 86 1008.4 0.0000 0.8000
06:23 15.8 13.6 87 1008.4 0.0000 0.8000
06:34 16.3 14 86 1008.4 0.0000 0.8000
06:44 16.3 14 86 1008.4 0.0000 0.8000
06:54 16.4 14.1 86 1008.4 0.0000 0.8000
07:04 17.3 14.9 86 1008.4 0.0000 0.8000
07:14 17.2 14.8 86 1008.5 0.0000 0.8000
07:24 17.1 14.7 86 1008.2 0.0000 0.8000
07:34 17.2 14.8 86 1008.2 0.0000 0.8000
07:44 17.9 15.5 86 1008.3 0.0000 0.8000
07:54 18.8 16.4 86 1008.3 0.0000 0.8000
08:04 19.7 17.3 86 1008.2 0.0000 0.8000
08:14 19.5 16.9 85 1008.4 0.0000 0.8000
08:25 19.9 17.3 85 1008.4 0.0000 0.8000
08:35 20 17.2 84 1008.4 0.0000 0.8000
08:44 20 17.2 84 1008.6 0.0000 0.8000
08:55 20 17.2 84 1008.6 0.0000 0.8000
09:05 20.5 17.7 84 1008.6 0.0000 0.8000
09:15 21.1 18.3 84 1008.6 0.0000 0.8000
09:25 21.6 18.6 83 1008.6 0.0000 0.8000
09:35 21.9 18.7 82 1008.6 0.0000 0.8000
09:45 22.1 18.5 80 1008.5 0.0000 0.8000
09:55 22.1 18.3 79 1008.4 0.0000 0.8000
10:05 22.4 18.6 79 1008.4 0.0000 0.8000
10:16 22.9 18.9 78 1008.3 0.0000 0.8000
10:25 22.8 18.4 76 1008.2 0.0000 0.8000
10:35 23 18.1 74 1008.2 0.0000 0.8000
10:46 23.2 18.3 74 1008.1 0.0000 0.8000
10:56 23.3 18.2 73 1008.1 0.0000 0.8000
11:06 23.5 18.2 72 1008.1 0.0000 0.8000
11:16 23.7 18.1 71 1008 0.0000 0.8000
11:26 24 18.2 70 1008 0.0000 0.8000
11:36 24.2 18.2 69 1008 0.0000 0.8000
11:46 24.2 17.9 68 1008 0.0000 0.8000
11:57 24.4 17.9 67 1008 0.0000 0.8000
12:06 24.6 17.8 66 1008 0.0000 0.8000
12:16 24.8 17.8 65 1008 0.0000 0.8000
12:26 24.9 17.6 64 1007.9 0.0000 0.8000
12:37 25.2 17.9 64 1007.9 0.0000 0.8000
12:46 25.5 17.9 63 1007.9 0.0000 0.8000
12:56 25.4 17.3 61 1007.9 0.0000 0.8000
13:07 25.5 17.4 61 1007.9 0.0000 0.8000
13:17 25.8 17.5 60 1007.9 0.0000 0.8000
13:27 26 17.6 60 1007.9 0.0000 0.8000
13:36 26.1 17.5 59 1007.8 0.0000 0.8000
13:47 26.4 17.5 58 1007.8 0.0000 0.8000
13:57 26.5 17.3 57 1007.8 0.0000 0.8000
14:07 26.5 17 56 1007.6 0.0000 0.8000
14:18 26.5 17 56 1007.6 0.0000 0.8000
14:27 26.5 17 56 1007.5 0.0000 0.8000
14:37 26.7 17.2 56 1007.4 0.0000 0.8000
14:47 26.8 17 55 1007.4 0.0000 0.8000
14:58 26.6 16.8 55 1007.2 0.0000 0.8000
15:08 26.7 16.9 55 1007.2 0.0000 0.8000
15:17 26.9 17.1 55 1007.1 0.0000 0.8000
15:28 27.1 16.7 53 1007.1 0.0000 0.8000
15:38 27.2 17.1 54 1006.8 0.0000 0.8000
15:48 27.5 17.1 53 1006.8 0.0000 0.8000
15:58 27.5 16.8 52 1006.5 0.0000 0.8000
16:08 27.5 16.5 51 1006.3 0.0000 0.8000
16:18 27 16 51 1006.2 0.0000 0.8000
16:28 25.9 15.6 53 1006.1 0.0000 0.8000
16:39 25.3 15.6 55 1006.2 0.0000 0.8000
16:49 25 15.6 56 1005.7 0.0000 0.8000
16:58 24.8 15.4 56 1006.6 0.0000 0.8000
17:08 23.9 14.6 56 1007.2 0.0000 0.8000
17:19 21.4 13.6 61 1007.1 0.0000 0.8000
17:34 19.4 12.7 65 1007.9 0.3030 1.1000
17:43 19.2 13.2 68 1008 1.1110 1.9000
17:54 19.3 13.7 70 1008.2 6.1610 7.0000
18:04 19.7 14.1 70 1008.4 6.9690 7.8000
18:19 18.3 12.7 70 1007.9 7.0700 7.9000
18:30 17.5 12.4 72 1008 6.8680 8.0000
18:39 17.2 12.5 74 1008.4 6.0600 8.0000
18:49 17.2 12.9 76 1008.1 1.1110 8.1000
18:59 17.2 13.1 77 1008 0.5050 8.3000
19:10 17.4 13.5 78 1008.1 0.5050 8.4000
19:20 17.5 13.6 78 1008.1 0.4040 8.4000
19:29 17.5 13.6 78 1008.2 0.4040 8.4000
19:40 17.3 13.4 78 1008.7 0.4040 8.4000
19:50 17.3 13.6 79 1008.1 0.5050 8.7000
20:00 17.2 13.5 79 1008.6 0.3030 8.7000
20:10 17.1 13.6 80 1008.6 0.3030 8.7000
20:20 17.1 13.6 80 1008.7 0.3030 8.7000
20:30 17 13.7 81 1008.9 0.5050 8.9000
20:40 16.8 13.5 81 1009.1 0.6060 9.0000
20:51 16.8 13.5 81 1009.1 0.7070 9.4000
21:01 16.9 13.6 81 1010.1 1.0100 9.7000
21:10 16.9 13.6 81 1010.3 1.5150 10.2000
21:20 16.9 13.8 82 1009.8 1.9190 10.6000
21:31 16.8 13.5 81 1009.1 1.9190 10.9000
21:41 16.7 13.6 82 1009.9 1.7170 10.9000
21:51 16.6 13.5 82 1009.8 1.3130 10.9000
22:01 16.4 13.3 82 1009.3 1.0100 10.9000
22:11 16.3 13.2 82 1009.5 0.4040 10.9000
22:21 16.2 13.3 83 1009.4 0.1010 10.9000
22:31 16.2 13.3 83 1009.4 0.0000 10.9000
22:41 16.1 13.2 83 1009.7 0.0000 10.9000
22:51 16.1 13.2 83 1009.8 0.0000 10.9000
23:01 16 13.3 84 1009.9 0.0000 10.9000
23:12 16.1 13.4 84 1009.5 0.0000 10.9000
23:22 16.1 13.4 84 1009.3 0.0000 10.9000
23:31 16 13.3 84 1009.3 0.0000 10.9000
23:41 15.9 13.2 84 1009.4 0.0000 10.9000
23:52 15.9 13.2 84 1009.2 0.0000 10.9000

DAY STATISTIC

2021-06-21
TEMPERATURE
AVERAGE
19.5
HIGH
27.5
15:48
LOW
15.0
05:53
PRESSURE
AVERAGE
1008.2
HIGH
1010.3
21:10
LOW
1005.7
16:49
DEWPOINT
AVERAGE
15.0
HIGH
18.9
10:16
LOW
12.4
18:30
HUMIDITY
AVERAGE
76
HIGH
87
06:23
LOW
51
16:08
PRECIPITATION
RAIN HOUR
7.1
RAIN DAY
10.9
TEMPERATURE (°C)
LOW
15.0
HIGH
27.5
AVERAGE
19.5
PRESSURE (hpa)
LOW
1005.7
HIGH
1010.3
AVERAGE
1008.2
DEVICE